Time;durP1;ratioP1;P1;durP2;ratioP2;P2;SDS_P1;SDS_P2;PMS_P1;PMS_P2;Temp;Humidity;BMP_temperature;BMP_pressure;BME280_temperature;BME280_humidity;BME280_pressure;Samples;Min_cycle;Max_cycle;Signal;HPM_P1;HPM_P2
2023/04/23 00:01:17;;;;;;;18.40;13.95;;;;;;;12.74;63.56;100693.13;5095030;28;20051;-68
2023/04/23 00:03:46;;;;;;;19.52;13.30;;;;;;;12.77;63.12;100694.53;5091597;28;20075;-68
2023/04/23 00:06:17;;;;;;;19.25;13.90;;;;;;;12.75;63.21;100688.56;5096104;28;20048;-66
2023/04/23 00:08:46;;;;;;;20.00;14.07;;;;;;;12.77;63.57;100695.34;5097758;28;20072;-66
2023/04/23 00:11:14;;;;;;;19.08;14.13;;;;;;;12.75;63.57;100692.06;5093749;28;20040;-67
2023/04/23 00:13:43;;;;;;;19.55;14.02;;;;;;;12.74;63.26;100692.31;5092557;28;20409;-69
2023/04/23 00:16:12;;;;;;;18.35;13.40;;;;;;;12.73;63.61;100691.50;5097153;28;20043;-67
2023/04/23 00:18:40;;;;;;;18.27;13.25;;;;;;;12.71;63.41;100689.03;5089562;28;20045;-67
2023/04/23 00:21:08;;;;;;;17.92;14.05;;;;;;;12.71;63.33;100689.03;5090437;28;20072;-67
2023/04/23 00:23:38;;;;;;;17.98;13.82;;;;;;;12.68;63.30;100686.81;5089846;28;20115;-67
2023/04/23 00:26:05;;;;;;;16.58;11.90;;;;;;;12.70;63.50;100689.28;5095703;28;20044;-67
2023/04/23 00:28:33;;;;;;;18.63;13.00;;;;;;;12.68;63.47;100689.50;5097046;28;20130;-67
2023/04/23 00:31:01;;;;;;;17.55;13.38;;;;;;;12.68;63.13;100686.81;5092421;28;20051;-68
2023/04/23 00:33:29;;;;;;;16.70;12.90;;;;;;;12.67;63.05;100682.47;5094366;28;20052;-67
2023/04/23 00:35:56;;;;;;;18.33;13.45;;;;;;;12.66;63.39;100683.53;5090488;28;20143;-68
2023/04/23 00:38:25;;;;;;;17.27;11.95;;;;;;;12.65;63.17;100684.59;5097715;28;20040;-67
2023/04/23 00:40:54;;;;;;;20.17;12.98;;;;;;;12.64;63.44;100682.13;5089216;28;20063;-68
2023/04/23 00:43:22;;;;;;;17.90;12.90;;;;;;;12.62;63.10;100677.00;5092177;28;20048;-68
2023/04/23 00:45:50;;;;;;;18.77;12.32;;;;;;;12.62;63.27;100679.69;5090727;28;20116;-68
2023/04/23 00:48:18;;;;;;;17.27;12.20;;;;;;;12.62;63.03;100665.38;5098105;28;20188;-67
2023/04/23 00:50:46;;;;;;;17.90;12.70;;;;;;;12.59;63.23;100666.69;5092768;28;20044;-68
2023/04/23 00:53:15;;;;;;;18.90;12.63;;;;;;;12.59;63.41;100665.88;5100038;28;20050;-68
2023/04/23 00:55:43;;;;;;;15.82;12.63;;;;;;;12.58;63.09;100662.34;5099102;28;20048;-68
2023/04/23 00:58:12;;;;;;;18.95;13.02;;;;;;;12.49;63.33;100644.09;5098617;28;20091;-68
2023/04/23 01:00:45;;;;;;;15.63;11.82;;;;;;;12.48;63.01;100647.84;5097132;28;20127;-68
2023/04/23 01:03:13;;;;;;;15.23;11.77;;;;;;;12.52;63.24;100649.00;5098988;28;20118;-68
2023/04/23 01:05:42;;;;;;;18.75;12.65;;;;;;;12.54;63.35;100644.19;5098342;28;20048;-67
2023/04/23 01:08:13;;;;;;;16.48;12.15;;;;;;;12.52;63.41;100639.03;5095799;28;20584;-67
2023/04/23 01:10:42;;;;;;;15.25;11.82;;;;;;;12.52;63.09;100649.00;5097312;28;20048;-67
2023/04/23 01:13:11;;;;;;;15.55;12.07;;;;;;;12.52;62.99;100638.22;5098895;28;20100;-68
2023/04/23 01:15:39;;;;;;;14.60;11.20;;;;;;;12.50;62.97;100645.72;5098208;28;20093;-67
2023/04/23 01:18:08;;;;;;;14.18;11.10;;;;;;;12.49;63.23;100644.91;5097302;28;20060;-68
2023/04/23 01:20:36;;;;;;;15.48;11.35;;;;;;;12.48;63.18;100635.19;5099051;28;20083;-68
2023/04/23 01:23:06;;;;;;;15.20;10.90;;;;;;;12.48;63.28;100642.47;5099355;28;20127;-68
2023/04/23 01:25:34;;;;;;;15.57;11.13;;;;;;;12.47;62.97;100640.81;5094994;28;20075;-67
2023/04/23 01:28:02;;;;;;;14.77;11.27;;;;;;;12.47;63.33;100638.13;5093642;28;20032;-67
2023/04/23 01:30:30;;;;;;;15.15;10.73;;;;;;;12.46;63.00;100634.63;5098859;28;20040;-67
2023/04/23 01:32:59;;;;;;;15.93;10.77;;;;;;;12.45;63.02;100638.38;5095177;28;20047;-67
2023/04/23 01:35:28;;;;;;;14.55;10.45;;;;;;;12.45;63.18;100634.84;5095533;28;20125;-67
2023/04/23 01:37:57;;;;;;;12.65;9.75;;;;;;;12.44;63.15;100631.34;5095307;28;20040;-67
2023/04/23 01:40:26;;;;;;;16.20;10.70;;;;;;;12.42;63.31;100633.44;5097444;28;20072;-68
2023/04/23 01:42:54;;;;;;;13.23;9.70;;;;;;;12.42;62.98;100628.06;5099732;28;20048;-67
2023/04/23 01:45:22;;;;;;;15.18;10.23;;;;;;;12.42;63.30;100630.75;5095592;28;20040;-68
2023/04/23 01:47:50;;;;;;;14.25;10.48;;;;;;;12.42;63.02;100632.63;5096088;28;20036;-68
2023/04/23 01:50:20;;;;;;;12.55;9.45;;;;;;;12.39;62.92;100632.06;5093233;28;20107;-68
2023/04/23 01:52:48;;;;;;;14.48;9.85;;;;;;;12.41;62.90;100626.44;5091453;28;20079;-69
2023/04/23 01:55:17;;;;;;;13.75;9.75;;;;;;;12.39;63.09;100632.06;5099058;28;20107;-69
2023/04/23 01:57:47;;;;;;;13.07;9.45;;;;;;;12.39;62.88;100634.75;5084251;28;20060;-69
2023/04/23 02:00:16;;;;;;;13.98;10.05;;;;;;;12.38;63.28;100635.81;5095543;28;20051;-67
2023/04/23 02:02:44;;;;;;;12.60;9.95;;;;;;;12.30;63.01;100619.19;5096376;28;20048;-67
2023/04/23 02:05:13;;;;;;;12.82;9.23;;;;;;;12.37;63.19;100631.47;5091581;28;20064;-67
2023/04/23 02:07:42;;;;;;;12.80;9.85;;;;;;;12.35;63.23;100630.91;5094645;28;20051;-68
2023/04/23 02:10:11;;;;;;;13.80;10.02;;;;;;;12.33;63.13;100626.81;5093237;28;20113;-68
2023/04/23 02:12:40;;;;;;;13.40;9.27;;;;;;;12.34;62.97;100637.34;5095758;28;20044;-68
2023/04/23 02:15:11;;;;;;;12.43;9.02;;;;;;;12.35;62.74;100633.59;5087284;28;20305;-67
2023/04/23 02:17:39;;;;;;;10.85;8.20;;;;;;;12.33;62.83;100618.72;5093597;28;20048;-67
2023/04/23 02:20:08;;;;;;;13.13;10.15;;;;;;;12.27;62.96;100615.09;5085498;28;20073;-67
2023/04/23 02:22:38;;;;;;;10.90;8.80;;;;;;;12.31;62.68;100621.66;5095210;28;20044;-67
2023/04/23 02:25:07;;;;;;;10.23;8.20;;;;;;;12.31;62.97;100616.25;5091768;28;20047;-68
2023/04/23 02:27:35;;;;;;;12.00;9.00;;;;;;;12.29;62.97;100621.06;5094996;28;20040;-68
2023/04/23 02:30:03;;;;;;;12.02;9.05;;;;;;;12.30;63.12;100617.31;5087460;28;20470;-68
2023/04/23 02:32:32;;;;;;;10.05;8.25;;;;;;;12.27;62.84;100611.59;5097473;28;20111;-68
2023/04/23 02:35:00;;;;;;;13.10;9.13;;;;;;;12.28;62.73;100616.75;5089494;28;20505;-68
2023/04/23 02:37:28;;;;;;;11.27;9.00;;;;;;;12.27;62.75;100612.41;5085516;28;20091;-68
2023/04/23 02:39:56;;;;;;;10.43;7.95;;;;;;;12.27;62.84;100619.66;5095617;28;20099;-68
2023/04/23 02:42:24;;;;;;;10.98;8.40;;;;;;;12.25;62.88;100611.81;5092448;28;20052;-68
2023/04/23 02:44:51;;;;;;;11.90;8.32;;;;;;;12.22;62.79;100609.59;5091774;28;20048;-68
2023/04/23 02:47:19;;;;;;;10.02;8.32;;;;;;;12.23;62.80;100610.44;5099706;28;20120;-68
2023/04/23 02:49:48;;;;;;;10.65;8.35;;;;;;;12.24;63.00;100607.50;5095369;28;20044;-68
2023/04/23 02:52:16;;;;;;;9.57;7.80;;;;;;;12.20;62.77;100600.94;5100405;28;20052;-68
2023/04/23 02:54:44;;;;;;;13.48;9.00;;;;;;;12.23;63.14;100610.44;5095571;28;20126;-68
2023/04/23 02:57:14;;;;;;;12.75;8.93;;;;;;;12.22;63.22;100611.47;5092010;28;20051;-68
2023/04/23 02:59:43;;;;;;;9.45;7.43;;;;;;;12.23;63.13;100605.03;5094505;28;20051;-68
2023/04/23 03:02:10;;;;;;;12.02;8.07;;;;;;;12.23;63.20;100607.72;5097706;28;20080;-67
2023/04/23 03:04:38;;;;;;;10.30;7.68;;;;;;;12.22;63.07;100617.69;5094929;28;20052;-69
2023/04/23 03:07:08;;;;;;;9.93;7.35;;;;;;;12.20;63.05;100609.03;5098315;28;20083;-69
2023/04/23 03:09:36;;;;;;;10.73;7.95;;;;;;;12.20;62.98;100609.03;5097671;28;20050;-68
2023/04/23 03:12:04;;;;;;;12.13;8.25;;;;;;;12.19;63.13;100599.31;5099676;28;20105;-70
2023/04/23 03:14:31;;;;;;;11.38;8.07;;;;;;;12.18;62.99;100600.38;5097965;28;20134;-68
2023/04/23 03:16:59;;;;;;;11.07;8.32;;;;;;;12.18;63.23;100594.16;5094161;28;20048;-69
2023/04/23 03:19:28;;;;;;;9.82;7.10;;;;;;;12.18;62.88;100592.28;5094636;28;20044;-69
2023/04/23 03:21:56;;;;;;;10.05;7.75;;;;;;;12.17;62.93;100593.34;5092730;28;20044;-69
2023/04/23 03:24:26;;;;;;;9.23;7.13;;;;;;;12.17;63.17;100595.22;5102281;28;20507;-69
2023/04/23 03:26:53;;;;;;;10.02;7.45;;;;;;;12.17;63.11;100595.22;5096198;28;20111;-69
2023/04/23 03:29:21;;;;;;;10.52;7.35;;;;;;;12.17;63.12;100592.53;5098460;28;20054;-69
2023/04/23 03:31:49;;;;;;;10.95;7.38;;;;;;;12.15;63.13;100594.63;5097646;28;20378;-69
2023/04/23 03:34:17;;;;;;;9.70;7.80;;;;;;;12.16;63.05;100598.97;5094921;28;20087;-69
2023/04/23 03:36:47;;;;;;;10.88;7.53;;;;;;;12.15;63.00;100592.75;5093757;28;20080;-68
2023/04/23 03:39:15;;;;;;;9.52;6.95;;;;;;;12.14;62.89;100593.00;5095120;28;20074;-68
2023/04/23 03:41:44;;;;;;;10.32;7.45;;;;;;;12.14;63.27;100593.00;5095777;28;20116;-69
2023/04/23 03:44:12;;;;;;;8.90;7.32;;;;;;;12.14;62.83;100590.31;5092758;28;20068;-69
2023/04/23 03:46:40;;;;;;;10.52;7.47;;;;;;;12.13;63.16;100591.38;5099570;28;20044;-69
2023/04/23 03:49:07;;;;;;;10.70;7.68;;;;;;;12.12;62.97;100595.13;5098558;28;20107;-69
2023/04/23 03:51:35;;;;;;;8.68;6.72;;;;;;;12.11;63.02;100588.94;5100540;28;20135;-69
2023/04/23 03:54:03;;;;;;;10.25;7.15;;;;;;;12.11;63.31;100593.50;5101324;28;20080;-69
2023/04/23 03:56:31;;;;;;;9.43;7.22;;;;;;;12.10;62.99;100592.69;5099329;28;20076;-69
2023/04/23 03:59:00;;;;;;;8.75;6.85;;;;;;;12.10;62.89;100594.56;5098754;28;20253;-69
2023/04/23 04:01:27;;;;;;;9.13;7.03;;;;;;;12.08;63.03;100586.72;5098948;28;20044;-68
2023/04/23 04:03:55;;;;;;;8.93;6.45;;;;;;;12.08;63.26;100593.97;5101145;28;20055;-68
2023/04/23 04:06:23;;;;;;;9.40;6.50;;;;;;;12.07;63.19;100593.16;5097424;28;20105;-68
2023/04/23 04:08:51;;;;;;;8.75;6.63;;;;;;;12.05;63.36;100597.97;5101299;28;20044;-68
2023/04/23 04:11:19;;;;;;;12.05;7.70;;;;;;;12.05;63.25;100596.09;5092604;28;20126;-67
2023/04/23 04:13:47;;;;;;;8.15;6.70;;;;;;;12.03;63.54;100600.06;5096213;28;20490;-67
2023/04/23 04:16:16;;;;;;;10.48;7.13;;;;;;;12.05;63.21;100601.47;5093507;28;20044;-68
2023/04/23 04:18:44;;;;;;;8.90;6.50;;;;;;;12.02;63.19;100601.13;5096635;28;20051;-68
2023/04/23 04:21:12;;;;;;;8.45;6.45;;;;;;;12.03;63.51;100603.59;5100556;28;20076;-69
2023/04/23 04:23:39;;;;;;;10.07;7.57;;;;;;;12.03;63.29;100592.81;5098756;28;20105;-68
2023/04/23 04:26:07;;;;;;;8.43;6.55;;;;;;;12.03;63.17;100597.38;5097430;28;20108;-68
2023/04/23 04:28:36;;;;;;;10.48;7.63;;;;;;;12.03;63.35;100602.78;5097973;28;20111;-68
2023/04/23 04:31:05;;;;;;;9.40;6.68;;;;;;;12.02;63.31;100596.56;5090877;28;20067;-68
2023/04/23 04:33:38;;;;;;;8.18;6.53;;;;;;;12.02;63.66;100593.06;5097097;28;20040;-68
2023/04/23 04:36:07;;;;;;;8.95;6.70;;;;;;;12.00;63.60;100598.69;5091262;28;20044;-68
2023/04/23 04:38:36;;;;;;;7.82;6.22;;;;;;;12.01;63.50;100596.81;5099455;28;20052;-68
2023/04/23 04:41:05;;;;;;;8.70;6.38;;;;;;;11.99;63.65;100588.97;5099805;28;21556;-67
2023/04/23 04:43:33;;;;;;;9.82;5.95;;;;;;;11.97;63.83;100585.69;5101163;28;20040;-69
2023/04/23 04:46:01;;;;;;;9.50;6.93;;;;;;;11.99;63.71;100597.03;5096302;28;20055;-69
2023/04/23 04:48:30;;;;;;;8.35;6.13;;;;;;;11.99;63.44;100588.13;5087150;28;20108;-69
2023/04/23 04:50:59;;;;;;;7.70;6.30;;;;;;;11.99;63.56;100598.91;4741579;28;10000064;-69
2023/04/23 04:53:27;;;;;;;7.53;5.40;;;;;;;11.97;63.65;100593.75;5087675;28;20070;-68
2023/04/23 04:55:55;;;;;;;10.40;6.22;;;;;;;11.98;63.40;100600.78;5090173;28;20063;-68
2023/04/23 04:58:23;;;;;;;8.05;6.10;;;;;;;11.98;63.95;100594.59;5083284;28;20094;-68
2023/04/23 05:00:51;;;;;;;8.27;6.13;;;;;;;11.97;63.76;100592.94;5093327;28;20044;-68
2023/04/23 05:03:19;;;;;;;9.50;6.65;;;;;;;11.97;63.69;100601.84;5095026;28;20055;-68
2023/04/23 05:05:47;;;;;;;8.82;6.13;;;;;;;11.97;63.86;100599.16;5080170;28;20072;-68
2023/04/23 05:08:17;;;;;;;9.77;5.90;;;;;;;11.98;63.66;100597.28;5084293;28;20052;-68
2023/04/23 05:10:45;;;;;;;6.75;5.80;;;;;;;11.97;63.80;100601.03;5083405;28;20142;-68
2023/04/23 05:13:13;;;;;;;8.52;6.03;;;;;;;11.97;63.86;100606.41;5084128;28;20040;-68
2023/04/23 05:15:41;;;;;;;8.70;5.82;;;;;;;11.88;63.48;100591.66;5094860;28;20059;-67
2023/04/23 05:18:10;;;;;;;9.30;5.78;;;;;;;11.96;64.09;100597.50;5088212;28;20055;-67
2023/04/23 05:20:38;;;;;;;8.70;6.22;;;;;;;11.94;63.71;100591.53;5080027;28;20076;-67
2023/04/23 05:23:06;;;;;;;8.27;5.90;;;;;;;11.95;63.75;100597.75;5083746;28;20135;-68
2023/04/23 05:25:35;;;;;;;7.50;5.50;;;;;;;11.92;63.57;100598.22;5087878;28;20138;-68
2023/04/23 05:28:03;;;;;;;8.70;5.90;;;;;;;11.95;63.78;100598.56;5094297;28;20058;-68
2023/04/23 05:30:30;;;;;;;7.28;5.65;;;;;;;11.95;63.85;100608.53;5084972;28;20048;-69
2023/04/23 05:32:58;;;;;;;7.25;5.18;;;;;;;11.95;63.61;100601.25;5085531;28;20336;-68
2023/04/23 05:35:26;;;;;;;7.88;5.63;;;;;;;11.94;63.62;100605.00;5077291;28;20060;-68
2023/04/23 05:37:55;;;;;;;8.25;5.53;;;;;;;11.94;63.58;100606.88;5086776;28;20108;-68
2023/04/23 05:40:23;;;;;;;7.55;5.43;;;;;;;11.94;63.69;100609.56;5093977;28;20081;-68
2023/04/23 05:42:52;;;;;;;9.10;6.25;;;;;;;11.95;63.64;100611.22;5085355;28;20597;-69
2023/04/23 05:45:20;;;;;;;10.07;5.55;;;;;;;11.92;63.91;100601.72;5091470;28;20115;-67
2023/04/23 05:47:48;;;;;;;8.57;5.97;;;;;;;11.92;63.99;100600.91;5092322;28;20551;-68
2023/04/23 05:50:16;;;;;;;7.85;5.55;;;;;;;11.92;64.00;100598.22;5088057;28;20048;-67
2023/04/23 05:52:44;;;;;;;7.57;5.65;;;;;;;11.92;63.92;100596.34;5085260;28;20083;-66
2023/04/23 05:55:14;;;;;;;6.57;5.18;;;;;;;11.92;63.86;100604.44;5093997;28;20196;-67
2023/04/23 05:57:42;;;;;;;7.78;5.55;;;;;;;11.85;63.83;100587.56;5092988;28;20119;-67
2023/04/23 06:00:12;;;;;;;8.77;5.90;;;;;;;11.92;64.03;100601.72;5091532;28;20040;-67
2023/04/23 06:02:40;;;;;;;9.43;5.47;;;;;;;11.94;64.17;100605.00;5089009;28;20040;-67
2023/04/23 06:05:09;;;;;;;9.13;5.45;;;;;;;11.94;64.29;100602.31;5085054;28;20079;-67
2023/04/23 06:07:37;;;;;;;7.05;5.28;;;;;;;11.96;64.31;100599.38;5088389;28;20067;-68
2023/04/23 06:10:07;;;;;;;8.50;6.07;;;;;;;11.99;64.45;100601.59;5095290;28;20056;-68
2023/04/23 06:12:37;;;;;;;7.53;4.95;;;;;;;12.02;64.52;100598.44;5096504;28;20354;-69
2023/04/23 06:15:07;;;;;;;7.35;5.38;;;;;;;12.02;64.02;100601.94;5097240;28;20128;-68
2023/04/23 06:17:36;;;;;;;7.30;4.70;;;;;;;12.04;64.24;100591.75;5095368;28;20055;-67
2023/04/23 06:20:05;;;;;;;7.05;4.45;;;;;;;12.05;64.41;100579.94;5094898;28;20047;-67
2023/04/23 06:22:33;;;;;;;6.07;4.82;;;;;;;12.01;64.19;100575.25;5096122;28;20595;-67
2023/04/23 06:25:00;;;;;;;5.40;4.43;;;;;;;12.11;64.25;100582.72;5095767;28;20130;-66
2023/04/23 06:27:28;;;;;;;7.63;4.85;;;;;;;12.13;64.37;100572.53;5088957;28;20051;-67
2023/04/23 06:29:56;;;;;;;7.20;4.90;;;;;;;12.14;64.13;100572.25;5091320;28;20073;-68
2023/04/23 06:32:24;;;;;;;7.10;4.90;;;;;;;12.16;64.41;100574.72;5093627;28;20148;-67
2023/04/23 06:34:53;;;;;;;5.30;4.38;;;;;;;12.19;64.42;100575.06;5092966;28;20048;-67
2023/04/23 06:37:29;;;;;;;5.70;4.15;;;;;;;12.20;64.64;100574.00;5096371;28;20839;-67
2023/04/23 06:39:58;;;;;;;6.28;4.35;;;;;;;12.26;64.97;100569.53;5086927;28;20443;-67
2023/04/23 06:42:26;;;;;;;6.35;4.05;;;;;;;12.29;64.90;100571.75;5089051;28;20067;-68
2023/04/23 06:44:55;;;;;;;7.03;4.10;;;;;;;12.33;64.41;100583.69;5093409;28;20044;-67
2023/04/23 06:47:23;;;;;;;5.53;3.85;;;;;;;12.35;64.79;100568.91;5091000;28;20480;-68
2023/04/23 06:49:51;;;;;;;5.47;4.00;;;;;;;12.37;64.79;100566.78;5089519;28;20477;-66
2023/04/23 06:52:20;;;;;;;5.10;3.90;;;;;;;12.55;64.83;100567.66;5095929;28;20078;-68
2023/04/23 06:54:47;;;;;;;5.32;3.50;;;;;;;12.59;64.37;100560.72;5093698;28;20040;-68
2023/04/23 06:57:15;;;;;;;6.50;4.20;;;;;;;12.64;64.62;100566.22;5093041;28;20202;-69
2023/04/23 06:59:43;;;;;;;5.90;3.83;;;;;;;12.62;64.39;100561.06;5089615;28;20130;-68
2023/04/23 07:02:11;;;;;;;6.03;3.38;;;;;;;12.60;64.70;100565.88;5097430;28;20072;-68
2023/04/23 07:04:39;;;;;;;4.72;3.45;;;;;;;12.61;64.38;100559.44;5094994;28;20135;-67
2023/04/23 07:07:08;;;;;;;6.47;3.17;;;;;;;12.67;65.10;100563.84;5094805;28;20115;-68
2023/04/23 07:09:37;;;;;;;7.20;3.53;;;;;;;12.69;65.17;100560.91;5081054;28;20080;-64
2023/04/23 07:12:05;;;;;;;5.40;3.63;;;;;;;12.79;64.69;100566.47;5092417;28;20040;-68
2023/04/23 07:14:32;;;;;;;4.60;3.10;;;;;;;12.74;64.90;100562.88;4744401;28;10000200;-64
2023/04/23 07:17:00;;;;;;;4.13;2.90;;;;;;;12.73;64.98;100555.84;5095438;28;20140;-66
2023/04/23 07:19:28;;;;;;;4.75;3.63;;;;;;;12.75;65.06;100553.72;5097148;28;20104;-65
2023/04/23 07:21:56;;;;;;;8.50;3.78;;;;;;;12.74;64.97;100554.78;5099349;28;20048;-66
2023/04/23 07:24:25;;;;;;;6.40;3.78;;;;;;;12.74;65.30;100549.41;5097816;28;20068;-65
2023/04/23 07:26:54;;;;;;;4.85;3.15;;;;;;;12.77;65.08;100551.59;5096623;28;20074;-66
2023/04/23 07:29:22;;;;;;;6.00;3.40;;;;;;;12.77;65.29;100554.31;5094925;28;20151;-66
2023/04/23 07:31:50;;;;;;;4.38;2.88;;;;;;;12.80;65.99;100549.25;5097629;28;20552;-67
2023/04/23 07:34:17;;;;;;;5.25;3.38;;;;;;;12.84;65.78;100538.78;5100333;28;20044;-66
2023/04/23 07:36:45;;;;;;;4.60;2.92;;;;;;;13.06;67.35;100545.09;5102521;28;20051;-66
2023/04/23 07:39:13;;;;;;;5.38;2.70;;;;;;;13.07;66.37;100546.72;5097802;28;20131;-68
2023/04/23 07:41:41;;;;;;;5.72;3.88;;;;;;;13.17;65.94;100548.78;5098680;28;20111;-67
2023/04/23 07:44:10;;;;;;;6.07;2.90;;;;;;;13.31;66.82;100542.81;5097144;28;20075;-67
2023/04/23 07:46:38;;;;;;;5.03;3.20;;;;;;;13.18;66.42;100536.94;5089377;28;20044;-66
2023/04/23 07:49:06;;;;;;;5.43;3.45;;;;;;;13.19;66.64;100539.38;5087511;28;20044;-65
2023/04/23 07:51:34;;;;;;;5.25;2.47;;;;;;;13.16;66.36;100534.47;5091483;28;20132;-67
2023/04/23 07:54:02;;;;;;;5.05;2.80;;;;;;;13.10;66.17;100526.53;5090524;28;20059;-66
2023/04/23 07:56:31;;;;;;;5.85;2.67;;;;;;;13.04;66.34;100531.03;5092597;28;20130;-66
2023/04/23 07:58:59;;;;;;;7.43;2.95;;;;;;;13.10;66.86;100538.13;5096729;28;20294;-65
2023/04/23 08:01:28;;;;;;;8.93;2.95;;;;;;;13.15;66.74;100545.50;5095057;28;20121;-68
2023/04/23 08:03:56;;;;;;;7.80;2.67;;;;;;;13.25;67.56;100534.88;5101607;28;20044;-65
2023/04/23 08:06:28;;;;;;;9.18;3.15;;;;;;;13.59;67.42;100522.16;5090395;28;20048;-65
2023/04/23 08:08:56;;;;;;;5.20;2.80;;;;;;;13.45;67.52;100510.88;5101785;28;20201;-65
2023/04/23 08:11:24;;;;;;;6.45;2.42;;;;;;;13.54;67.80;100522.06;5101350;28;20497;-65
2023/04/23 08:13:52;;;;;;;5.00;2.38;;;;;;;13.55;67.27;100516.44;5100392;28;20075;-64
2023/04/23 08:16:19;;;;;;;9.70;2.95;;;;;;;13.36;67.03;100517.78;5094163;28;20453;-64
2023/04/23 08:18:48;;;;;;;5.55;2.55;;;;;;;13.26;66.70;100515.75;5103171;28;20055;-65
2023/04/23 08:21:32;;;;;;;4.35;2.10;;;;;;;13.31;67.05;100509.59;5087317;28;20076;-66
2023/04/23 08:24:01;;;;;;;8.60;2.70;;;;;;;13.24;66.79;100508.97;5102956;28;20108;-66
2023/04/23 08:26:29;;;;;;;5.03;2.72;;;;;;;13.28;68.03;100504.69;5099644;28;20087;-64
2023/04/23 08:28:59;;;;;;;13.15;2.78;;;;;;;13.25;67.46;100497.91;5101548;28;20147;-63
2023/04/23 08:31:27;;;;;;;5.55;2.47;;;;;;;13.23;67.55;100499.22;5100931;28;20059;-63
2023/04/23 08:33:57;;;;;;;6.88;2.58;;;;;;;13.39;69.08;100511.88;5096679;28;20055;-63
2023/04/23 08:36:25;;;;;;;6.05;2.95;;;;;;;13.61;68.78;100512.72;5097490;28;20081;-64
2023/04/23 08:38:53;;;;;;;8.70;3.47;;;;;;;13.52;68.31;100511.53;5102966;28;20460;-64
2023/04/23 08:41:25;;;;;;;5.18;2.35;;;;;;;13.46;67.93;100504.41;5097588;28;20078;-64
2023/04/23 08:44:02;;;;;;;5.10;2.30;;;;;;;13.45;68.09;100499.28;5097312;28;20336;-64
2023/04/23 08:46:31;;;;;;;5.70;2.45;;;;;;;13.45;68.04;100502.78;5092166;28;20063;-64
2023/04/23 08:49:02;;;;;;;9.35;2.88;;;;;;;13.48;68.22;100499.59;5098531;28;20089;-64
2023/04/23 08:51:33;;;;;;;6.00;2.58;;;;;;;13.46;68.19;100496.31;5097132;28;20485;-64
2023/04/23 08:54:04;;;;;;;6.40;1.90;;;;;;;13.49;68.83;100498.53;5099235;28;20439;-64
2023/04/23 08:56:32;;;;;;;6.53;2.30;;;;;;;13.61;68.79;100498.41;5097202;28;20057;-64
2023/04/23 08:59:02;;;;;;;6.72;2.72;;;;;;;13.59;68.50;100501.34;5101221;28;20052;-64
2023/04/23 09:01:30;;;;;;;8.13;2.70;;;;;;;13.62;68.19;100514.38;5098065;28;20070;-65
2023/04/23 09:03:59;;;;;;;7.05;3.08;;;;;;;13.85;68.40;100513.31;5100005;28;20115;-64
2023/04/23 09:06:30;;;;;;;5.13;2.58;;;;;;;13.76;68.25;100505.88;5097218;28;20055;-64
2023/04/23 09:08:59;;;;;;;3.65;1.63;;;;;;;13.70;67.94;100498.78;5102196;28;20486;-64
2023/04/23 09:11:27;;;;;;;5.00;1.90;;;;;;;13.82;68.26;100502.19;5087074;28;20043;-64
2023/04/23 09:13:56;;;;;;;5.55;2.25;;;;;;;13.79;67.93;100500.00;5101648;28;20122;-64
2023/04/23 09:16:24;;;;;;;9.57;2.45;;;;;;;13.75;67.61;100499.66;5094385;28;20061;-64
2023/04/23 09:18:52;;;;;;;8.73;2.47;;;;;;;13.98;67.53;100498.56;5097592;28;20104;-64
2023/04/23 09:21:20;;;;;;;5.18;1.98;;;;;;;13.87;67.93;100488.72;5085627;28;20570;-64
2023/04/23 09:23:52;;;;;;;8.85;2.83;;;;;;;13.89;67.60;100494.69;5099608;28;20044;-64
2023/04/23 09:26:21;;;;;;;6.55;2.33;;;;;;;14.02;67.52;100484.28;5092319;28;20049;-64
2023/04/23 09:28:50;;;;;;;5.38;1.60;;;;;;;13.95;67.52;100480.97;5087362;28;20043;-64
2023/04/23 09:31:21;;;;;;;7.03;2.55;;;;;;;13.96;67.46;100476.38;5082066;28;20051;-63
2023/04/23 09:33:53;;;;;;;7.15;2.28;;;;;;;14.07;67.29;100480.84;5087164;28;20048;-63
2023/04/23 09:36:22;;;;;;;5.97;1.73;;;;;;;14.09;67.25;100469.78;5084012;28;20050;-63
2023/04/23 09:38:55;;;;;;;10.43;1.98;;;;;;;14.06;67.44;100479.19;5100681;28;20054;-64
2023/04/23 09:41:24;;;;;;;3.50;1.70;;;;;;;14.13;67.03;100474.41;5098394;28;20075;-64
2023/04/23 09:43:54;;;;;;;9.63;2.17;;;;;;;14.09;66.87;100476.00;5095243;28;20036;-63
2023/04/23 09:46:37;;;;;;;6.63;1.73;;;;;;;14.06;66.70;100472.97;5092983;28;20052;-64
2023/04/23 09:49:07;;;;;;;3.17;1.48;;;;;;;14.01;66.89;100471.03;5093224;28;20127;-65
2023/04/23 09:51:37;;;;;;;6.75;2.28;;;;;;;14.05;67.03;100476.75;5088509;28;20079;-63
2023/04/23 09:54:11;;;;;;;7.45;2.90;;;;;;;14.10;66.96;100476.81;5086740;28;20478;-63
2023/04/23 09:56:39;;;;;;;6.50;2.80;;;;;;;14.16;66.84;100470.38;5093009;28;20044;-63
2023/04/23 09:59:20;;;;;;;6.05;1.98;;;;;;;14.16;66.70;100464.97;5088841;28;20052;-63
2023/04/23 10:02:03;;;;;;;7.82;1.67;;;;;;;14.15;66.57;100466.88;5094070;28;20044;-63
2023/04/23 10:04:32;;;;;;;8.18;2.22;;;;;;;14.13;66.46;100469.00;5097298;28;20055;-63
2023/04/23 10:07:01;;;;;;;3.80;1.58;;;;;;;14.12;66.51;100467.38;5099025;28;20044;-63
2023/04/23 10:09:35;;;;;;;6.88;2.05;;;;;;;14.14;66.31;100461.72;5098577;28;20048;-63
2023/04/23 10:12:03;;;;;;;12.30;2.60;;;;;;;14.16;66.21;100459.56;5096959;28;20151;-64
2023/04/23 10:14:30;;;;;;;6.35;2.10;;;;;;;14.17;66.07;100459.31;5089094;28;20058;-63
2023/04/23 10:17:00;;;;;;;5.18;1.98;;;;;;;14.10;65.87;100447.91;5099623;28;20075;-64
2023/04/23 10:19:29;;;;;;;4.85;1.65;;;;;;;14.19;66.52;100454.47;5098724;28;20199;-63
2023/04/23 10:22:03;;;;;;;6.20;1.70;;;;;;;14.21;65.94;100456.94;5095017;28;20058;-63
2023/04/23 10:24:54;;;;;;;6.20;2.25;;;;;;;14.22;65.94;100456.66;5090760;28;20052;-64
2023/04/23 10:27:23;;;;;;;4.78;1.77;;;;;;;14.24;66.27;100454.53;5091765;28;20078;-64
2023/04/23 10:30:12;;;;;;;10.32;1.60;;;;;;;14.27;66.10;100450.50;5080685;28;20051;-64
2023/04/23 10:32:40;;;;;;;4.55;1.50;;;;;;;14.26;65.91;100440.75;5086045;28;20041;-66
2023/04/23 10:35:09;;;;;;;6.65;2.05;;;;;;;14.34;66.28;100443.00;5087533;28;20052;-66
2023/04/23 10:37:38;;;;;;;6.07;1.88;;;;;;;14.45;66.01;100436.63;5085824;28;20132;-65
2023/04/23 10:40:11;;;;;;;4.68;1.40;;;;;;;14.44;66.07;100445.81;5079421;28;20095;-65
2023/04/23 10:42:40;;;;;;;5.80;2.00;;;;;;;14.43;65.55;100438.78;5095753;28;20070;-64
2023/04/23 10:45:14;;;;;;;6.82;1.80;;;;;;;14.44;65.92;100428.78;5094569;28;20116;-65
2023/04/23 10:47:53;;;;;;;3.95;1.83;;;;;;;14.45;65.73;100414.19;5094540;28;20098;-64
2023/04/23 10:50:26;;;;;;;4.05;2.13;;;;;;;14.66;66.12;100424.09;5096477;28;20097;-64
2023/04/23 10:52:55;;;;;;;7.95;1.90;;;;;;;14.61;65.53;100418.66;5095676;28;20047;-66
2023/04/23 10:55:27;;;;;;;4.15;1.45;;;;;;;14.59;65.68;100412.69;5089399;28;20045;-67
2023/04/23 10:57:59;;;;;;;5.30;1.65;;;;;;;14.59;65.63;100410.78;5094816;28;20441;-65
2023/04/23 11:00:41;;;;;;;9.63;2.28;;;;;;;14.60;65.65;100406.19;5100025;28;20052;-66
2023/04/23 11:03:28;;;;;;;6.45;1.55;;;;;;;14.62;65.51;100409.47;5098552;28;20087;-65
2023/04/23 11:05:56;;;;;;;;;;;;;;;14.62;65.28;100406.75;5093174;28;20051;-65
2023/04/23 11:08:24;;;;;;;4.32;1.60;;;;;;;14.63;65.34;100397.56;5098115;28;19967;-65
2023/04/23 11:10:56;;;;;;;4.38;1.35;;;;;;;14.63;65.49;100390.28;5096533;28;20086;-65
2023/04/23 11:13:24;;;;;;;3.88;1.73;;;;;;;14.64;65.52;100393.78;5102276;28;20100;-65
2023/04/23 11:16:17;;;;;;;2.97;1.80;;;;;;;14.66;65.55;100402.47;5098019;28;20127;-65
2023/04/23 11:19:00;;;;;;;4.18;1.63;;;;;;;14.67;65.66;100393.28;5096661;28;20055;-68
2023/04/23 11:21:58;;;;;;;8.82;1.60;;;;;;;14.68;65.20;100381.38;5088603;28;20116;-66
2023/04/23 11:24:28;;;;;;;5.63;1.45;;;;;;;14.69;65.17;100372.19;5089887;28;20044;-65
2023/04/23 11:26:58;;;;;;;6.30;1.48;;;;;;;14.73;65.37;100375.19;5098489;28;20054;-66
2023/04/23 11:29:27;;;;;;;5.65;1.70;;;;;;;14.74;65.11;100360.59;5094380;28;20062;-66
2023/04/23 11:31:56;;;;;;;3.35;1.30;;;;;;;14.77;65.22;100366.28;5103701;28;20501;-67